• Join FlightAware (Why Join?)
  • Login
  • US Flag 
06:43AM EDT


 

Airport Tracker/Info


-or-


 

Live Flight TrackerFlight Track Log ✈ SKW4764 ✈ 02-Mar-2014 ✈ KSLC - KMSO

Flight Track Log - Related Links

Times and Time Zones

All times are in EST time to prevent confusion due to time zone crossing. See the SKW4764 flight status page for this flight to view local times or setup timezone preferences in your user account.

Time Position Orientation Groundspeed Altitude Reporting Facility
EST Latitude Longitude Course Direction KTS MPH feet Rate Location/Type
07:00PM 40.7739 -111.9989 234° Southwest 171 197 5,000  Level Salt Lake Center
07:01PM 40.7469 -112.0478 234° Southwest 220 253 7,300 2,040 Climbing Salt Lake Center
07:02PM 40.7603 -112.0725 305° West 220 253 8,200 1,740 Climbing Salt Lake Center
07:02PM 40.7997 -112.1206 317° Northwest 285 328 9,300 2,220 Climbing Salt Lake Center
07:03PM 40.8386 -112.1269 353° North 292 336 10,500 2,460 Climbing Salt Lake Center
07:04PM 40.9139 -112.0747 28° Northeast 312 359 13,000 1,920 Climbing Salt Lake Center
07:05PM 40.9928 -112.0128 31° Northeast 332 382 14,500 1,500 Climbing Salt Lake Center
07:06PM 41.0811 -111.9397 32° Northeast 364 419 16,100 1,320 Climbing Salt Lake Center
07:07PM 41.1742 -111.8650 31° Northeast 380 437 17,300 1,320 Climbing Salt Lake Center
07:08PM 41.2725 -111.7911 29° Northeast 401 461 18,900 1,500 Climbing Salt Lake Center
07:09PM 41.3700 -111.7214 28° Northeast 398 458 20,400 1,260 Climbing Salt Lake Center
07:10PM 41.4753 -111.6758 18° North 396 456 21,600 1,020 Climbing Salt Lake Center
07:11PM 41.5847 -111.6481 11° North 398 458 22,600 960 Climbing Salt Lake Center
07:12PM 41.6878 -111.6936 342° North 393 452 23,600 900 Climbing Salt Lake Center
07:13PM 41.7919 -111.7378 342° North 394 453 24,500 780 Climbing Salt Lake Center
07:14PM 41.9158 -111.7922 342° North 392 451 25,200 540 Climbing Salt Lake Center
07:15PM 42.0244 -111.8364 343° North 404 465 25,700 540 Climbing Salt Lake Center
07:16PM 42.1308 -111.8806 343° North 403 464 26,400 780 Climbing Salt Lake Center
07:17PM 42.2356 -111.9253 342° North 398 458 27,300 840 Climbing Salt Lake Center
07:18PM 42.3408 -111.9708 342° North 396 456 28,200 900 Climbing Salt Lake Center
07:19PM 42.4450 -112.0150 343° North 393 452 29,200 840 Climbing Salt Lake Center
07:20PM 42.5467 -112.0589 342° North 386 444 30,000 360 Climbing Salt Lake Center
07:21PM 42.6731 -112.1142 342° North 396 456 30,000  Level Salt Lake Center
07:22PM 42.7792 -112.1569 344° North 411 473 30,000  Level Salt Lake Center
07:23PM 42.8850 -112.2025 342° North 417 480 30,000  Level Salt Lake Center
07:24PM 43.0064 -112.2558 342° North 410 472 30,000  Level Salt Lake Center
07:25PM 43.1100 -112.3008 342° North 407 468 30,000  Level Salt Lake Center
07:27PM 43.2297 -112.3533 342° North 404 465 30,000  Level Salt Lake Center
07:28PM 43.3331 -112.3981 343° North 406 467 30,000  Level Salt Lake Center
07:29PM 43.4372 -112.4442 342° North 409 471 30,000  Level Salt Lake Center
07:30PM 43.5603 -112.5000 342° North 414 476 30,000  Level Salt Lake Center
07:31PM 43.6647 -112.5458 342° North 411 473 30,000  Level Salt Lake Center
07:32PM 43.7861 -112.5997 342° North 411 473 30,000  Level Salt Lake Center
07:33PM 43.8878 -112.6450 342° North 405 466 30,000  Level Salt Lake Center
07:34PM 44.0075 -112.6992 342° North 403 464 30,000  Level Salt Lake Center
07:35PM 44.1122 -112.7467 342° North 409 471 30,000  Level Salt Lake Center
07:36PM 44.2183 -112.7950 342° North 413 475 30,000  Level Salt Lake Center
07:37PM 44.3419 -112.8517 342° North 416 479 30,000  Level Salt Lake Center
07:38PM 44.4469 -112.9000 342° North 414 476 30,000  Level Salt Lake Center
07:39PM 44.5653 -112.9700 337° Northwest 412 474 30,000  Level Salt Lake Center
07:40PM 44.6631 -113.0422 332° Northwest 412 474 30,000  Level Salt Lake Center
07:41PM 44.7606 -113.1125 333° Northwest 411 473 30,000  Level Salt Lake Center
07:42PM 44.8697 -113.1928 332° Northwest 400 460 30,000  Level Salt Lake Center
07:43PM 44.9639 -113.2631 332° Northwest 398 458 30,000  Level Salt Lake Center
07:44PM 45.0764 -113.3458 333° Northwest 405 466 30,000  Level Salt Lake Center
07:45PM 45.1728 -113.4167 333° Northwest 408 470 30,000  Level Salt Lake Center
07:46PM 45.2697 -113.4906 332° Northwest 412 474 30,000  Level Salt Lake Center
07:47PM 45.3869 -113.5786 332° Northwest 412 474 30,000  Level Salt Lake Center
07:48PM 45.4881 -113.6531 333° Northwest 421 484 30,000  Level Salt Lake Center
07:49PM 45.5894 -113.7303 332° Northwest 418 481 30,000  Level Salt Lake Center
07:50PM 45.6878 -113.8008 333° Northwest 414 476 30,000  Level Salt Lake Center
07:51PM 45.7850 -113.8767 331° Northwest 403 464 30,000 -240 Level Salt Lake Center
07:52PM 45.8847 -113.9539 332° Northwest 407 468 29,600 -1,620 Descending Salt Lake Center
07:53PM 46.0081 -114.0483 332° Northwest 417 480 26,700 -2,640 Descending Salt Lake Center
07:54PM 46.1139 -114.1322 331° Northwest 428 493 24,200 -2,460 Descending Salt Lake Center
07:55PM 46.2156 -114.2092 332° Northwest 417 480 21,700 -2,460 Descending Salt Lake Center
07:56PM 46.3153 -114.2864 332° Northwest 409 471 19,200 -2,460 Descending Salt Lake Center
07:57PM 46.4189 -114.3664 332° Northwest 397 457 16,700 -2,100 Descending Salt Lake Center
07:58PM 46.5044 -114.4342 331° Northwest 384 442 14,900 -1,920 Descending Salt Lake Center
07:59PM 46.5961 -114.5053 332° Northwest 376 433 12,800 -1,440 Descending Salt Lake Center
08:00PM 46.6856 -114.5772 331° Northwest 370 426 12,000 -420 Descending Salt Lake Center
08:01PM 46.8078 -114.6161 348° North 376 433 12,000 -60 Level Salt Lake Center
08:02PM 46.9039 -114.6286 355° North 353 406 11,900  Descending Salt Lake Center
08:03PM 46.9853 -114.6378 356° North 298 343 12,000 -600 Climbing Salt Lake Center
08:04PM 47.0764 -114.6525 354° North 305 351 10,700 -1,200 Descending Salt Lake Center
08:06PM 47.1503 -114.6000 26° Northeast 308 354 9,600 -840 Descending Salt Lake Center
08:07PM 47.1506 -114.4944 90° East 265 305 9,000 -540 Descending Salt Lake Center
08:08PM 47.1111 -114.4236 129° Southeast 202 232 8,600 -480 Descending Salt Lake Center
08:09PM 47.0778 -114.3725 134° Southeast 176 203 8,100 -720 Descending Salt Lake Center
08:10PM 47.0503 -114.3244 130° Southeast 157 181 7,200 -900 Descending Salt Lake Center
08:11PM 47.0217 -114.2733 129° Southeast 151 174 6,300 -840 Descending Salt Lake Center
08:12PM 46.9958 -114.2281 130° Southeast 147 169 5,500 -840 Descending Salt Lake Center
08:13PM 46.9711 -114.1867 131° Southeast 138 159 4,700 -840 Descending Salt Lake Center
08:14PM 46.9433 -114.1389 130° Southeast 142 163 3,800 -780 Descending Salt Lake Center
08:15PM 46.9222 -114.1028 131° Southeast 140 161 3,200 -600 Descending Salt Lake Center